createdAt,value
2022-08-05T00:04:57.084Z,5.05
2022-08-05T00:09:58.788Z,5.97
2022-08-05T00:15:13.948Z,5.47
2022-08-05T00:20:22.110Z,6.65
2022-08-05T00:25:45.552Z,6.88
2022-08-05T00:30:52.039Z,8.30
2022-08-05T00:36:16.333Z,8.48
2022-08-05T00:41:28.356Z,9.00
2022-08-05T00:46:54.065Z,9.40
2022-08-05T00:52:03.722Z,10.73
2022-08-05T00:57:05.488Z,11.13
2022-08-05T01:02:07.577Z,11.25
2022-08-05T01:07:13.574Z,11.95
2022-08-05T01:12:19.170Z,11.75
2022-08-05T01:17:40.325Z,12.80
2022-08-05T01:23:15.218Z,12.90
2022-08-05T01:28:24.688Z,14.15
2022-08-05T01:33:35.126Z,14.25
2022-08-05T01:38:37.985Z,13.18
2022-08-05T01:43:40.637Z,13.40
2022-08-05T01:48:44.816Z,13.65
2022-08-05T01:53:58.004Z,13.32
2022-08-05T01:59:08.926Z,12.70
2022-08-05T02:04:11.759Z,11.75
2022-08-05T02:09:14.610Z,11.85
2022-08-05T02:14:21.702Z,9.85
2022-08-05T02:19:28.265Z,7.90
2022-08-05T02:24:37.481Z,8.88
2022-08-05T02:29:59.441Z,8.20
2022-08-05T02:35:13.745Z,8.48
2022-08-05T02:40:18.390Z,8.32
2022-08-05T02:45:24.105Z,8.40
2022-08-05T02:50:27.789Z,12.85
2022-08-05T02:55:54.814Z,14.63
2022-08-05T03:00:58.754Z,14.00
2022-08-05T03:06:56.936Z,13.75
2022-08-05T03:11:54.693Z,13.80
2022-08-05T03:16:47.182Z,14.38
2022-08-05T03:21:50.142Z,13.75
2022-08-05T03:26:51.944Z,14.70
2022-08-05T03:31:56.839Z,15.38
2022-08-05T03:37:00.123Z,14.63
2022-08-05T03:42:01.776Z,14.68
2022-08-05T03:47:03.696Z,13.77
2022-08-05T03:52:38.912Z,14.65
2022-08-05T03:57:41.610Z,15.15
2022-08-05T04:02:58.092Z,15.20
2022-08-05T04:08:03.346Z,14.82
2022-08-05T04:18:12.761Z,14.20
2022-08-05T04:24:05.003Z,14.65
2022-08-05T04:28:51.193Z,14.18
2022-08-05T04:34:19.081Z,14.07
2022-08-05T04:39:15.595Z,14.20
2022-08-05T04:44:24.465Z,13.25
2022-08-05T04:49:38.377Z,13.55
2022-08-05T04:54:53.808Z,12.40
2022-08-05T04:59:58.945Z,11.27
2022-08-05T05:05:02.250Z,11.43
2022-08-05T05:10:06.606Z,10.73
2022-08-05T05:15:10.893Z,11.13
2022-08-05T05:20:13.577Z,9.93
2022-08-05T05:25:16.749Z,9.93
2022-08-05T05:30:31.413Z,11.15
2022-08-05T05:35:39.767Z,10.37
2022-08-05T05:40:49.646Z,9.63
2022-08-05T05:45:53.170Z,9.02
2022-08-05T05:50:54.802Z,8.23
2022-08-05T05:56:00.885Z,7.78
2022-08-05T06:01:12.710Z,7.15
2022-08-05T06:06:16.777Z,6.97
2022-08-05T06:11:18.698Z,7.88
2022-08-05T06:16:29.347Z,5.25
2022-08-05T06:21:36.657Z,5.68
2022-08-05T06:26:51.306Z,7.03
2022-08-05T06:31:54.348Z,12.32
2022-08-05T06:36:58.168Z,7.10
2022-08-05T06:42:04.213Z,6.63
2022-08-05T06:47:06.315Z,6.30
2022-08-05T06:52:36.851Z,7.80
2022-08-05T06:57:57.809Z,6.57
2022-08-05T07:02:55.985Z,6.93
2022-08-05T07:07:57.674Z,6.55
2022-08-05T07:13:46.352Z,6.10
2022-08-05T07:18:39.772Z,5.90
2022-08-05T07:23:50.595Z,5.07
2022-08-05T07:28:54.148Z,4.30
2022-08-05T07:33:55.900Z,4.43
2022-08-05T07:39:05.756Z,4.03
2022-08-05T07:44:14.291Z,4.93
2022-08-05T07:49:20.850Z,5.32
2022-08-05T07:54:31.465Z,5.63
2022-08-05T07:59:39.952Z,6.22
2022-08-05T08:04:42.377Z,6.80
2022-08-05T08:09:48.105Z,6.90
2022-08-05T08:14:49.934Z,6.30
2022-08-05T08:20:43.728Z,6.25
2022-08-05T08:25:16.188Z,5.70
2022-08-05T08:30:33.919Z,4.72
2022-08-05T08:35:41.282Z,4.13
2022-08-05T08:40:54.240Z,4.82
2022-08-05T08:45:59.090Z,3.38
2022-08-05T08:52:01.655Z,3.30
2022-08-05T08:56:28.305Z,2.65
2022-08-05T09:01:31.469Z,5.13
2022-08-05T09:06:33.293Z,2.40
2022-08-05T09:11:52.457Z,2.00
2022-08-05T09:16:55.964Z,2.40
2022-08-05T09:22:22.531Z,3.08
2022-08-05T09:28:05.998Z,3.13
2022-08-05T09:33:02.264Z,3.20
2022-08-05T09:38:16.853Z,3.60
2022-08-05T09:43:46.554Z,3.22
2022-08-05T09:49:06.512Z,3.70
2022-08-05T09:54:11.406Z,4.22
2022-08-05T09:59:17.162Z,4.80
2022-08-05T10:04:19.062Z,5.00
2022-08-05T10:09:31.109Z,4.47
2022-08-05T10:14:47.223Z,5.07
2022-08-05T10:20:04.399Z,5.53
2022-08-05T10:25:14.360Z,7.32
2022-08-05T10:31:20.213Z,7.50
2022-08-05T10:35:40.562Z,8.15
2022-08-05T10:40:52.224Z,9.07
2022-08-05T10:46:06.964Z,9.68
2022-08-05T10:51:22.436Z,8.98
2022-08-05T10:56:36.409Z,10.07
2022-08-05T11:01:54.068Z,11.65
2022-08-05T11:06:57.676Z,7.88
2022-08-05T11:11:59.434Z,7.25
2022-08-05T11:17:57.253Z,6.18
2022-08-05T11:22:53.649Z,7.60
2022-08-05T11:28:17.102Z,5.30
2022-08-05T11:33:48.748Z,4.68
2022-08-05T11:38:54.426Z,4.68
2022-08-05T11:44:06.070Z,6.13
2022-08-05T11:49:15.009Z,3.72
2022-08-05T11:54:33.554Z,3.38
2022-08-05T11:59:50.055Z,3.58
2022-08-05T12:04:59.293Z,3.27
2022-08-05T12:10:09.080Z,5.00
2022-08-05T12:15:20.916Z,3.50
2022-08-05T12:20:40.625Z,3.05
2022-08-05T12:26:09.320Z,2.38
2022-08-05T12:31:11.216Z,2.10
2022-08-05T12:36:25.360Z,2.45
2022-08-05T12:41:34.300Z,2.70
2022-08-05T12:46:38.559Z,3.15
2022-08-05T12:52:12.789Z,2.88
2022-08-05T12:57:14.136Z,2.85
2022-08-05T13:02:30.207Z,2.85
2022-08-05T13:07:57.700Z,2.20
2022-08-05T13:12:58.272Z,2.30
2022-08-05T13:18:00.396Z,2.40
2022-08-05T13:23:02.847Z,2.35
2022-08-05T13:28:10.447Z,2.58
2022-08-05T13:33:14.288Z,1.95
2022-08-05T13:38:38.479Z,1.88
2022-08-05T13:43:54.955Z,1.73
2022-08-05T13:49:00.883Z,2.10
2022-08-05T13:54:02.875Z,5.97
2022-08-05T13:59:06.046Z,2.70
2022-08-05T14:04:43.109Z,2.25
2022-08-05T14:09:52.249Z,2.38
2022-08-05T14:14:53.954Z,2.53
2022-08-05T14:20:00.926Z,2.20
2022-08-05T14:25:21.656Z,2.30
2022-08-05T14:30:26.617Z,2.10
2022-08-05T14:35:37.020Z,2.15
2022-08-05T14:40:51.708Z,3.05
2022-08-05T14:45:53.353Z,2.90
2022-08-05T14:50:55.379Z,2.83
2022-08-05T14:55:57.224Z,2.25
2022-08-05T15:01:00.432Z,2.17
2022-08-05T15:06:08.295Z,2.80
2022-08-05T15:11:15.320Z,2.20
2022-08-05T15:16:17.889Z,2.08
2022-08-05T15:21:21.068Z,1.80
2022-08-05T15:26:31.987Z,2.00
2022-08-05T15:31:34.585Z,1.98
2022-08-05T15:36:36.779Z,1.70
2022-08-05T15:41:58.032Z,1.70
2022-08-05T15:47:01.884Z,1.55
2022-08-05T15:52:14.207Z,1.23
2022-08-05T15:57:19.643Z,1.40
2022-08-05T16:02:25.524Z,1.40
2022-08-05T16:07:31.136Z,1.30
2022-08-05T16:12:32.782Z,1.63
2022-08-05T16:17:34.642Z,1.58
2022-08-05T16:22:36.388Z,1.70
2022-08-05T16:28:00.220Z,1.70
2022-08-05T16:33:02.146Z,1.50
2022-08-05T17:02:39.834Z,0.60
2022-08-05T17:37:32.129Z,0.80
2022-08-05T17:42:30.093Z,0.40
2022-08-05T17:47:34.213Z,0.60
2022-08-05T17:52:52.692Z,0.60
2022-08-05T17:58:00.456Z,1.60
2022-08-05T18:03:02.274Z,0.57
2022-08-05T18:08:05.664Z,0.50
2022-08-05T18:13:12.540Z,0.60
2022-08-05T18:18:14.660Z,0.60
2022-08-05T18:23:18.505Z,0.50
2022-08-05T18:28:22.031Z,0.55
2022-08-05T18:33:37.553Z,0.60
2022-08-05T18:38:48.738Z,0.55
2022-08-05T18:43:51.909Z,0.40
2022-08-05T18:48:54.172Z,0.70
2022-08-05T18:53:56.055Z,0.68
2022-08-05T18:59:00.758Z,0.70
2022-08-05T19:04:03.282Z,0.70
2022-08-05T19:09:07.274Z,0.60
2022-08-05T19:15:00.010Z,0.50
2022-08-05T19:19:30.861Z,0.77
2022-08-05T19:24:34.503Z,0.70
2022-08-05T19:29:37.200Z,0.63
2022-08-05T19:34:40.840Z,0.57
2022-08-05T19:39:45.697Z,0.70
2022-08-05T19:44:53.643Z,0.75
2022-08-05T19:50:00.801Z,0.70
2022-08-05T19:55:07.037Z,0.75
2022-08-05T20:00:10.914Z,0.70
2022-08-05T20:05:16.587Z,0.70
2022-08-05T20:10:26.546Z,1.10
2022-08-05T20:15:51.944Z,0.70
2022-08-05T20:20:50.902Z,0.80
2022-08-05T20:25:54.324Z,0.90
2022-08-05T20:30:56.054Z,0.80
2022-08-05T20:35:57.752Z,0.93
2022-08-05T20:41:00.207Z,1.20
2022-08-05T20:46:06.800Z,0.90
2022-08-05T20:51:08.540Z,0.93
2022-08-05T20:56:10.241Z,1.08
2022-08-05T21:01:11.938Z,0.88
2022-08-05T21:06:28.502Z,0.82
2022-08-05T21:12:09.747Z,0.85
2022-08-05T21:16:53.244Z,0.98
2022-08-05T21:21:55.201Z,0.90
2022-08-05T21:26:58.334Z,0.80
2022-08-05T21:32:04.278Z,1.00
2022-08-05T21:37:08.029Z,1.00
2022-08-05T21:42:40.891Z,1.00
2022-08-05T21:47:55.129Z,1.13
2022-08-05T21:52:58.762Z,1.27
2022-08-05T21:58:06.525Z,0.80
2022-08-05T22:03:09.804Z,0.93
2022-08-05T22:08:22.535Z,0.95
2022-08-05T22:14:33.978Z,1.08
2022-08-05T22:18:49.171Z,1.33
2022-08-05T22:24:13.174Z,1.02
2022-08-05T22:29:32.921Z,0.90
2022-08-05T22:34:35.060Z,0.80
2022-08-05T22:39:38.029Z,1.20
2022-08-05T22:44:42.641Z,1.20
2022-08-05T22:50:20.635Z,0.93
2022-08-05T22:55:19.010Z,1.00
2022-08-05T23:00:23.672Z,1.00
2022-08-05T23:05:25.478Z,1.20
2022-08-05T23:10:27.125Z,1.17
2022-08-05T23:15:35.218Z,1.10
2022-08-05T23:20:38.256Z,1.00
2022-08-05T23:25:52.619Z,1.20
2022-08-05T23:31:16.247Z,0.85
2022-08-05T23:36:19.302Z,0.93
2022-08-05T23:41:21.430Z,0.85
2022-08-05T23:46:23.726Z,1.00
2022-08-05T23:51:25.529Z,0.80
2022-08-05T23:56:27.834Z,1.00
